TFL9565 EHAM-LIRZ
Flight info
| Callsign | TFL9565 |
|---|---|
| Flight time | 1h 44m |
| Altitude | 39000 |
| Route | EDUPO Z739 MISGO DCT ASBON DCT TUSUK DCT UTABA M738 BATUB DCT TIRUL M738 NATAG DCT LORLO DCT ADOSA DCT VERUN Q25 LAKOX |
| Aircraft | B38M/M-SDE1FGHILORVWXY/HB1 |
Departure
| Time | 2026-05-04 06:40 |
|---|---|
| Airport | Amsterdam Airport Schiphol (EHAM) |
Arrival
| Time | 2026-05-04 08:24 |
|---|---|
| Airport | Perugia San Francesco d'Assisi – Umbria International Airport (LIRZ) |
| Time | Latitude | Longitude | Altitude | Speed | Heading |
|---|---|---|---|---|---|
| 2026-05-04 06:13 | 52.30705 | 4.77216 | 1 ft | 0 kts | 4° |
| 2026-05-04 06:32 | 52.30698 | 4.77215 | 1 ft | 4 kts | 5° |
| 2026-05-04 06:33 | 52.30654 | 4.77185 | 1 ft | 0 kts | 64° |
| 2026-05-04 06:36 | 52.30589 | 4.77526 | 1 ft | 12 kts | 154° |
| 2026-05-04 06:37 | 52.30566 | 4.77545 | 1 ft | 2 kts | 153° |
| 2026-05-04 06:37 | 52.30545 | 4.77562 | 1 ft | 5 kts | 153° |
| 2026-05-04 06:37 | 52.30500 | 4.77600 | 1 ft | 10 kts | 153° |
| 2026-05-04 06:37 | 52.30422 | 4.77632 | 1 ft | 13 kts | 202° |
| 2026-05-04 06:38 | 52.30361 | 4.77498 | 0 ft | 18 kts | 238° |
| 2026-05-04 06:38 | 52.30206 | 4.77090 | -1 ft | 80 kts | 237° |
| 2026-05-04 06:40 | 52.24117 | 4.68421 | 2271 ft | 221 kts | 148° |
| 2026-05-04 06:40 | 52.23043 | 4.70195 | 2409 ft | 224 kts | 121° |
| 2026-05-04 06:40 | 52.22273 | 4.72446 | 2555 ft | 229 kts | 119° |
| 2026-05-04 06:40 | 52.21499 | 4.74725 | 2741 ft | 230 kts | 118° |
| 2026-05-04 06:41 | 52.20710 | 4.77031 | 2868 ft | 239 kts | 120° |
| 2026-05-04 06:41 | 52.19839 | 4.79450 | 2887 ft | 254 kts | 120° |
| 2026-05-04 06:41 | 52.18939 | 4.81962 | 2925 ft | 260 kts | 120° |
| 2026-05-04 06:41 | 52.18028 | 4.84520 | 2931 ft | 262 kts | 118° |
| 2026-05-04 06:42 | 52.17562 | 4.87354 | 3167 ft | 263 kts | 88° |
| 2026-05-04 06:42 | 52.17913 | 4.90223 | 4241 ft | 260 kts | 75° |
| 2026-05-04 06:42 | 52.18395 | 4.93120 | 5079 ft | 270 kts | 74° |
| 2026-05-04 06:44 | 52.22407 | 5.14949 | 10845 ft | 322 kts | 73° |
| 2026-05-04 06:44 | 52.23078 | 5.18543 | 11267 ft | 340 kts | 73° |
| 2026-05-04 06:44 | 52.23699 | 5.22340 | 11649 ft | 351 kts | 83° |
| 2026-05-04 06:45 | 52.23574 | 5.26271 | 11701 ft | 348 kts | 107° |
| 2026-05-04 06:45 | 52.22552 | 5.29826 | 11871 ft | 347 kts | 126° |
| 2026-05-04 06:45 | 52.21174 | 5.33071 | 11942 ft | 349 kts | 126° |
| 2026-05-04 06:45 | 52.19787 | 5.36319 | 11956 ft | 349 kts | 127° |
| 2026-05-04 06:46 | 52.18391 | 5.39556 | 11956 ft | 349 kts | 127° |
| 2026-05-04 06:46 | 52.16991 | 5.42781 | 11958 ft | 349 kts | 127° |
| 2026-05-04 06:46 | 52.15584 | 5.46014 | 12111 ft | 352 kts | 127° |
| 2026-05-04 06:46 | 52.14170 | 5.49255 | 13001 ft | 351 kts | 127° |
| 2026-05-04 06:48 | 52.04076 | 5.71342 | 17730 ft | 378 kts | 133° |
| 2026-05-04 06:48 | 52.02342 | 5.74583 | 18347 ft | 382 kts | 133° |
| 2026-05-04 06:49 | 52.00600 | 5.77863 | 18957 ft | 385 kts | 133° |
| 2026-05-04 06:50 | 51.87968 | 6.01463 | 22881 ft | 407 kts | 134° |
| 2026-05-04 06:51 | 51.86101 | 6.04928 | 23413 ft | 410 kts | 134° |
| 2026-05-04 06:51 | 51.84216 | 6.08398 | 23924 ft | 413 kts | 135° |
| 2026-05-04 06:51 | 51.82315 | 6.11894 | 24437 ft | 415 kts | 135° |
| 2026-05-04 06:51 | 51.80398 | 6.15415 | 24910 ft | 419 kts | 135° |
| 2026-05-04 06:52 | 51.78466 | 6.18960 | 25385 ft | 422 kts | 135° |
| 2026-05-04 06:52 | 51.76518 | 6.22524 | 25850 ft | 425 kts | 135° |
| 2026-05-04 06:52 | 51.74555 | 6.26110 | 26295 ft | 428 kts | 135° |
| 2026-05-04 06:52 | 51.72574 | 6.29723 | 26726 ft | 431 kts | 135° |
| 2026-05-04 06:53 | 51.70580 | 6.33353 | 27138 ft | 433 kts | 135° |
| 2026-05-04 06:53 | 51.68576 | 6.36997 | 27545 ft | 436 kts | 135° |
| 2026-05-04 06:53 | 51.66558 | 6.40661 | 27954 ft | 439 kts | 135° |
| 2026-05-04 06:53 | 51.64525 | 6.44349 | 28342 ft | 441 kts | 135° |
| 2026-05-04 06:54 | 51.62481 | 6.48052 | 28720 ft | 444 kts | 135° |
| 2026-05-04 06:54 | 51.60422 | 6.51777 | 29095 ft | 447 kts | 135° |
| 2026-05-04 06:54 | 51.58351 | 6.55517 | 29466 ft | 449 kts | 135° |
| 2026-05-04 06:54 | 51.56269 | 6.59272 | 29824 ft | 451 kts | 135° |
| 2026-05-04 06:55 | 51.54170 | 6.63053 | 30173 ft | 454 kts | 135° |
| 2026-05-04 06:55 | 51.52062 | 6.66844 | 30515 ft | 456 kts | 135° |
| 2026-05-04 06:55 | 51.49944 | 6.70647 | 30865 ft | 458 kts | 135° |
| 2026-05-04 06:55 | 51.47815 | 6.74463 | 31201 ft | 460 kts | 135° |
| 2026-05-04 06:56 | 51.45676 | 6.78293 | 31540 ft | 462 kts | 135° |
| 2026-05-04 06:57 | 51.28205 | 6.99939 | 34349 ft | 451 kts | 150° |
| 2026-05-04 06:58 | 51.25549 | 7.02607 | 34734 ft | 450 kts | 150° |
| 2026-05-04 06:58 | 51.22898 | 7.05265 | 35062 ft | 451 kts | 150° |
| 2026-05-04 06:58 | 51.20242 | 7.07923 | 35409 ft | 450 kts | 150° |
| 2026-05-04 06:58 | 51.17585 | 7.10578 | 35723 ft | 450 kts | 150° |
| 2026-05-04 06:59 | 51.14935 | 7.13222 | 36016 ft | 450 kts | 150° |
| 2026-05-04 06:59 | 51.12273 | 7.15876 | 36332 ft | 450 kts | 150° |
| 2026-05-04 06:59 | 51.09652 | 7.18485 | 36585 ft | 451 kts | 150° |
| 2026-05-04 06:59 | 51.06960 | 7.21161 | 36875 ft | 450 kts | 150° |
| 2026-05-04 07:01 | 50.88574 | 7.39336 | 38720 ft | 444 kts | 150° |
| 2026-05-04 07:01 | 50.85983 | 7.41884 | 38887 ft | 445 kts | 150° |
| 2026-05-04 07:02 | 50.83355 | 7.44465 | 38998 ft | 446 kts | 150° |
| 2026-05-04 07:02 | 50.80715 | 7.47053 | 39000 ft | 445 kts | 151° |
| 2026-05-04 07:02 | 50.75456 | 7.52202 | 38999 ft | 444 kts | 151° |
| 2026-05-04 07:03 | 50.70258 | 7.57477 | 39004 ft | 444 kts | 149° |
| 2026-05-04 07:03 | 50.65098 | 7.62835 | 38998 ft | 444 kts | 149° |
| 2026-05-04 07:04 | 50.59931 | 7.68170 | 39010 ft | 444 kts | 149° |
| 2026-05-04 07:04 | 50.54765 | 7.73489 | 39015 ft | 444 kts | 149° |
| 2026-05-04 07:05 | 50.49597 | 7.78795 | 39026 ft | 444 kts | 149° |
| 2026-05-04 07:05 | 50.44431 | 7.84085 | 39028 ft | 443 kts | 149° |
| 2026-05-04 07:06 | 50.37578 | 7.91081 | 39012 ft | 443 kts | 149° |
| 2026-05-04 07:07 | 50.32412 | 7.96339 | 39028 ft | 443 kts | 149° |
| 2026-05-04 07:09 | 50.11570 | 8.16822 | 39048 ft | 439 kts | 158° |
| 2026-05-04 07:09 | 50.06023 | 8.20866 | 39044 ft | 440 kts | 157° |
| 2026-05-04 07:10 | 50.00466 | 8.24880 | 39043 ft | 440 kts | 158° |
| 2026-05-04 07:12 | 49.78220 | 8.40836 | 39032 ft | 440 kts | 158° |
| 2026-05-04 07:12 | 49.72654 | 8.44802 | 39030 ft | 440 kts | 158° |
| 2026-05-04 07:13 | 49.67075 | 8.48768 | 39029 ft | 441 kts | 158° |
| 2026-05-04 07:13 | 49.61504 | 8.52718 | 39031 ft | 440 kts | 158° |
| 2026-05-04 07:14 | 49.47597 | 8.62535 | 39012 ft | 441 kts | 158° |
| 2026-05-04 07:15 | 49.42020 | 8.66454 | 39020 ft | 441 kts | 158° |
| 2026-05-04 07:15 | 49.36439 | 8.70367 | 39025 ft | 441 kts | 158° |
| 2026-05-04 07:16 | 49.30860 | 8.74268 | 39019 ft | 441 kts | 158° |
| 2026-05-04 07:16 | 49.25264 | 8.78171 | 39027 ft | 441 kts | 158° |
| 2026-05-04 07:17 | 49.19681 | 8.82056 | 39027 ft | 441 kts | 158° |
| 2026-05-04 07:17 | 49.14093 | 8.85935 | 39027 ft | 441 kts | 158° |
| 2026-05-04 07:18 | 49.08501 | 8.89807 | 39014 ft | 441 kts | 158° |
| 2026-05-04 07:18 | 49.02915 | 8.93664 | 39026 ft | 441 kts | 158° |
| 2026-05-04 07:19 | 48.97312 | 8.97525 | 39028 ft | 441 kts | 158° |
| 2026-05-04 07:19 | 48.91750 | 9.01346 | 39033 ft | 442 kts | 158° |
| 2026-05-04 07:20 | 48.86150 | 9.05186 | 39027 ft | 441 kts | 158° |
| 2026-05-04 07:20 | 48.80546 | 9.09017 | 39016 ft | 442 kts | 158° |
| 2026-05-04 07:22 | 48.58121 | 9.24259 | 39018 ft | 442 kts | 158° |
| 2026-05-04 07:23 | 48.52501 | 9.28055 | 39030 ft | 442 kts | 158° |
| 2026-05-04 07:23 | 48.46887 | 9.31838 | 39027 ft | 442 kts | 158° |
| 2026-05-04 07:24 | 48.41263 | 9.35620 | 39019 ft | 442 kts | 158° |
| 2026-05-04 07:24 | 48.35645 | 9.39390 | 39034 ft | 442 kts | 158° |
| 2026-05-04 07:26 | 48.12548 | 9.51792 | 39046 ft | 441 kts | 165° |
| 2026-05-04 07:27 | 48.06655 | 9.54343 | 39043 ft | 441 kts | 165° |
| 2026-05-04 07:27 | 48.00938 | 9.57603 | 39010 ft | 442 kts | 147° |
| 2026-05-04 07:28 | 47.96667 | 9.61859 | 39004 ft | 446 kts | 148° |
| 2026-05-04 07:28 | 47.91534 | 9.67024 | 39053 ft | 446 kts | 147° |
| 2026-05-04 07:29 | 47.86410 | 9.72239 | 39045 ft | 445 kts | 147° |
| 2026-05-04 07:29 | 47.81292 | 9.77444 | 39045 ft | 446 kts | 147° |
| 2026-05-04 07:30 | 47.76170 | 9.82641 | 39055 ft | 446 kts | 147° |
| 2026-05-04 07:30 | 47.71042 | 9.87832 | 39054 ft | 446 kts | 147° |
| 2026-05-04 07:31 | 47.65915 | 9.93007 | 39056 ft | 446 kts | 147° |
| 2026-05-04 07:33 | 47.45392 | 10.13605 | 39061 ft | 445 kts | 147° |
| 2026-05-04 07:33 | 47.40257 | 10.18734 | 39070 ft | 445 kts | 147° |
| 2026-05-04 07:34 | 47.35120 | 10.23846 | 39086 ft | 445 kts | 147° |
| 2026-05-04 07:34 | 47.29984 | 10.28946 | 39114 ft | 445 kts | 147° |
| 2026-05-04 07:35 | 47.24839 | 10.34041 | 39116 ft | 446 kts | 147° |
| 2026-05-04 07:35 | 47.19690 | 10.39129 | 39120 ft | 445 kts | 147° |
| 2026-05-04 07:36 | 47.14544 | 10.44202 | 39135 ft | 445 kts | 147° |
| 2026-05-04 07:38 | 46.95218 | 10.57628 | 39155 ft | 442 kts | 163° |
| 2026-05-04 07:38 | 46.92281 | 10.58957 | 39143 ft | 442 kts | 163° |
| 2026-05-04 07:38 | 46.86402 | 10.61608 | 39157 ft | 442 kts | 164° |
| 2026-05-04 07:39 | 46.80524 | 10.64254 | 39156 ft | 442 kts | 163° |
| 2026-05-04 07:39 | 46.74643 | 10.66894 | 39156 ft | 442 kts | 164° |
| 2026-05-04 07:40 | 46.68683 | 10.68987 | 39179 ft | 441 kts | 169° |
| 2026-05-04 07:40 | 46.62682 | 10.70912 | 39149 ft | 441 kts | 168° |
| 2026-05-04 07:41 | 46.56692 | 10.72874 | 39156 ft | 441 kts | 168° |
| 2026-05-04 07:41 | 46.50701 | 10.74839 | 39171 ft | 442 kts | 168° |
| 2026-05-04 07:42 | 46.44705 | 10.76800 | 39168 ft | 442 kts | 168° |
| 2026-05-04 07:42 | 46.38711 | 10.78757 | 39159 ft | 441 kts | 168° |
| 2026-05-04 07:43 | 46.32717 | 10.80709 | 39176 ft | 442 kts | 168° |
| 2026-05-04 07:43 | 46.26765 | 10.82646 | 39186 ft | 441 kts | 168° |
| 2026-05-04 07:44 | 46.20770 | 10.84589 | 39195 ft | 442 kts | 168° |
| 2026-05-04 07:44 | 46.14778 | 10.86527 | 39203 ft | 441 kts | 168° |
| 2026-05-04 07:45 | 46.08780 | 10.88465 | 39202 ft | 442 kts | 168° |
| 2026-05-04 07:45 | 46.02781 | 10.90396 | 39204 ft | 442 kts | 168° |
| 2026-05-04 07:46 | 45.96783 | 10.92325 | 39204 ft | 442 kts | 168° |
| 2026-05-04 07:46 | 45.90783 | 10.94249 | 39193 ft | 442 kts | 168° |
| 2026-05-04 07:47 | 45.84776 | 10.96171 | 39183 ft | 442 kts | 168° |
| 2026-05-04 07:49 | 45.60820 | 11.04199 | 39127 ft | 442 kts | 165° |
| 2026-05-04 07:49 | 45.54889 | 11.06542 | 39117 ft | 442 kts | 165° |
| 2026-05-04 07:50 | 45.48956 | 11.08871 | 39114 ft | 443 kts | 165° |
| 2026-05-04 07:50 | 45.43024 | 11.11196 | 39111 ft | 442 kts | 165° |
| 2026-05-04 07:51 | 45.37082 | 11.13518 | 39109 ft | 442 kts | 165° |
| 2026-05-04 07:51 | 45.31140 | 11.15836 | 39102 ft | 442 kts | 165° |
| 2026-05-04 07:52 | 45.25205 | 11.18146 | 39101 ft | 442 kts | 166° |
| 2026-05-04 07:52 | 45.19264 | 11.20455 | 39101 ft | 443 kts | 166° |
| 2026-05-04 07:54 | 44.95487 | 11.29640 | 39114 ft | 443 kts | 166° |
| 2026-05-04 07:55 | 44.89537 | 11.31926 | 39125 ft | 443 kts | 166° |
| 2026-05-04 07:55 | 44.83590 | 11.34206 | 39120 ft | 443 kts | 166° |
| 2026-05-04 07:56 | 44.77678 | 11.36468 | 39125 ft | 443 kts | 166° |
| 2026-05-04 07:56 | 44.71724 | 11.38742 | 39126 ft | 443 kts | 166° |
| 2026-05-04 07:57 | 44.65773 | 11.41009 | 39128 ft | 443 kts | 166° |
| 2026-05-04 07:57 | 44.59815 | 11.43275 | 39137 ft | 444 kts | 166° |
| 2026-05-04 07:58 | 44.53862 | 11.45532 | 38266 ft | 445 kts | 166° |
| 2026-05-04 07:58 | 44.50856 | 11.46670 | 37460 ft | 448 kts | 166° |
| 2026-05-04 07:58 | 44.47859 | 11.47805 | 36907 ft | 444 kts | 166° |
| 2026-05-04 07:59 | 44.44869 | 11.48935 | 36086 ft | 447 kts | 166° |
| 2026-05-04 07:59 | 44.41847 | 11.50076 | 35172 ft | 452 kts | 166° |
| 2026-05-04 07:59 | 44.38806 | 11.51223 | 34339 ft | 455 kts | 166° |
| 2026-05-04 07:59 | 44.35744 | 11.52377 | 33584 ft | 455 kts | 166° |
| 2026-05-04 08:00 | 44.32687 | 11.53527 | 32847 ft | 455 kts | 166° |
| 2026-05-04 08:00 | 44.29628 | 11.54677 | 32024 ft | 456 kts | 166° |
| 2026-05-04 08:00 | 44.26554 | 11.55832 | 31243 ft | 457 kts | 166° |
| 2026-05-04 08:02 | 44.05563 | 11.63681 | 26950 ft | 437 kts | 166° |
| 2026-05-04 08:02 | 44.02637 | 11.64771 | 26353 ft | 434 kts | 165° |
| 2026-05-04 08:02 | 43.99726 | 11.65854 | 25752 ft | 432 kts | 165° |
| 2026-05-04 08:03 | 43.96834 | 11.66929 | 25156 ft | 429 kts | 165° |
| 2026-05-04 08:03 | 43.93957 | 11.67996 | 24568 ft | 427 kts | 165° |
| 2026-05-04 08:03 | 43.91096 | 11.69058 | 23981 ft | 424 kts | 165° |
| 2026-05-04 08:03 | 43.88253 | 11.70111 | 23403 ft | 422 kts | 165° |
| 2026-05-04 08:04 | 43.85428 | 11.71156 | 22811 ft | 420 kts | 165° |
| 2026-05-04 08:04 | 43.82610 | 11.72198 | 22248 ft | 417 kts | 165° |
| 2026-05-04 08:04 | 43.79819 | 11.73230 | 21674 ft | 414 kts | 165° |
| 2026-05-04 08:04 | 43.77078 | 11.74242 | 21126 ft | 411 kts | 165° |
| 2026-05-04 08:05 | 43.74321 | 11.75257 | 20587 ft | 408 kts | 165° |
| 2026-05-04 08:05 | 43.71591 | 11.76263 | 20047 ft | 405 kts | 165° |
| 2026-05-04 08:05 | 43.68883 | 11.77260 | 19522 ft | 401 kts | 165° |
| 2026-05-04 08:05 | 43.66189 | 11.78250 | 18999 ft | 398 kts | 165° |
| 2026-05-04 08:06 | 43.63528 | 11.79227 | 18486 ft | 394 kts | 165° |
| 2026-05-04 08:06 | 43.60886 | 11.80196 | 17981 ft | 391 kts | 165° |
| 2026-05-04 08:06 | 43.58272 | 11.81155 | 17488 ft | 387 kts | 165° |
| 2026-05-04 08:06 | 43.55682 | 11.82104 | 17005 ft | 384 kts | 165° |
| 2026-05-04 08:08 | 43.38180 | 11.88497 | 13786 ft | 360 kts | 165° |
| 2026-05-04 08:08 | 43.35771 | 11.89373 | 13341 ft | 358 kts | 165° |
| 2026-05-04 08:10 | 43.20537 | 12.03488 | 10770 ft | 311 kts | 133° |
| 2026-05-04 08:11 | 43.19092 | 12.05635 | 10612 ft | 302 kts | 133° |
| 2026-05-04 08:11 | 43.16270 | 12.09674 | 10320 ft | 284 kts | 139° |
| 2026-05-04 08:11 | 43.15278 | 12.10815 | 10216 ft | 279 kts | 142° |
| 2026-05-04 08:12 | 43.13733 | 12.12379 | 9991 ft | 274 kts | 146° |
| 2026-05-04 08:12 | 43.12132 | 12.13764 | 9692 ft | 272 kts | 150° |
| 2026-05-04 08:12 | 43.10471 | 12.14978 | 9391 ft | 270 kts | 154° |
| 2026-05-04 08:12 | 43.08754 | 12.16019 | 9084 ft | 269 kts | 159° |
| 2026-05-04 08:13 | 43.07000 | 12.16881 | 8803 ft | 267 kts | 163° |
| 2026-05-04 08:13 | 43.05220 | 12.17560 | 8508 ft | 265 kts | 167° |
| 2026-05-04 08:13 | 43.03428 | 12.18152 | 8225 ft | 264 kts | 164° |
| 2026-05-04 08:13 | 43.01690 | 12.18946 | 7933 ft | 263 kts | 160° |
| 2026-05-04 08:14 | 43.00006 | 12.19893 | 7652 ft | 261 kts | 156° |
| 2026-05-04 08:14 | 42.98382 | 12.20987 | 7372 ft | 259 kts | 152° |
| 2026-05-04 08:14 | 42.96830 | 12.22225 | 7083 ft | 258 kts | 148° |
| 2026-05-04 08:16 | 42.88366 | 12.34419 | 4985 ft | 262 kts | 119° |
| 2026-05-04 08:16 | 42.87542 | 12.36611 | 4779 ft | 257 kts | 115° |
| 2026-05-04 08:16 | 42.86937 | 12.38863 | 4619 ft | 250 kts | 103° |
| 2026-05-04 08:17 | 42.86896 | 12.41165 | 4475 ft | 241 kts | 73° |
| 2026-05-04 08:17 | 42.87734 | 12.43066 | 4336 ft | 233 kts | 45° |
| 2026-05-04 08:17 | 42.88984 | 12.44381 | 4214 ft | 223 kts | 23° |
| 2026-05-04 08:17 | 42.90457 | 12.44898 | 4077 ft | 216 kts | 9° |
| 2026-05-04 08:19 | 42.98964 | 12.47630 | 2971 ft | 153 kts | 14° |
| 2026-05-04 08:19 | 42.99987 | 12.47985 | 2724 ft | 151 kts | 14° |
| 2026-05-04 08:20 | 43.01007 | 12.48340 | 2470 ft | 150 kts | 14° |
| 2026-05-04 08:20 | 43.02020 | 12.48692 | 2243 ft | 150 kts | 14° |
| 2026-05-04 08:20 | 43.03028 | 12.49044 | 2013 ft | 150 kts | 14° |
| 2026-05-04 08:20 | 43.04040 | 12.49387 | 1774 ft | 149 kts | 13° |
| 2026-05-04 08:21 | 43.05045 | 12.49721 | 1562 ft | 149 kts | 14° |
| 2026-05-04 08:21 | 43.06033 | 12.50085 | 1340 ft | 146 kts | 14° |
| 2026-05-04 08:21 | 43.07020 | 12.50419 | 1111 ft | 146 kts | 13° |
| 2026-05-04 08:21 | 43.08005 | 12.50764 | 906 ft | 146 kts | 14° |
| 2026-05-04 08:22 | 43.08989 | 12.51111 | 690 ft | 143 kts | 14° |
| 2026-05-04 08:22 | 43.09817 | 12.51403 | 670 ft | 93 kts | 14° |
| 2026-05-04 08:24 | 43.10609 | 12.51446 | 672 ft | 16 kts | 194° |
| 2026-05-04 08:24 | 43.10493 | 12.51405 | 672 ft | 19 kts | 194° |
| 2026-05-04 08:24 | 43.10358 | 12.51358 | 672 ft | 21 kts | 194° |
| 2026-05-04 08:24 | 43.10206 | 12.51305 | 672 ft | 24 kts | 194° |
| 2026-05-04 08:25 | 43.10045 | 12.51249 | 672 ft | 20 kts | 194° |
| 2026-05-04 08:25 | 43.09922 | 12.51206 | 672 ft | 19 kts | 194° |
| 2026-05-04 08:25 | 43.09801 | 12.51164 | 672 ft | 15 kts | 196° |
| 2026-05-04 08:25 | 43.09735 | 12.51050 | 672 ft | 17 kts | 246° |
| 2026-05-04 08:26 | 43.09683 | 12.50891 | 671 ft | 20 kts | 246° |
| 2026-05-04 08:27 | 43.09514 | 12.50386 | 672 ft | 0 kts | 249° |